Time,TemperatureF,DewpointF,PressureIn,WindDirection,WindDirectionDegrees,WindSpeedMPH,WindSpeedGustMPH,Humidity,HourlyPrecipIn,Conditions,Clouds,dailyrainin,SoftwareType,DateUTC
2013-10-04 00:23:00,50.0,42.0,31.04,West,270,0.0,0.0,73,-99.99,,,-99.99,,2013-10-04 07:23:00,
2013-10-04 00:56:00,50.0,42.0,31.04,West,270,0.0,0.0,74,-99.99,,,-99.99,,2013-10-04 07:56:00,
2013-10-04 01:23:00,50.0,42.0,31.04,West,270,0.0,0.0,74,-99.99,,,-99.99,,2013-10-04 08:23:00,
2013-10-04 01:33:00,50.0,42.0,31.04,West,270,0.0,0.0,74,-99.99,,,-99.99,,2013-10-04 08:33:00,
2013-10-04 01:56:00,50.0,42.0,31.04,West,270,0.0,0.0,75,-99.99,,,-99.99,,2013-10-04 08:56:00,
2013-10-04 02:03:00,50.0,42.0,31.04,West,270,0.0,0.0,75,-99.99,,,-99.99,,2013-10-04 09:03:00,
2013-10-04 02:23:00,49.0,42.0,31.05,West,270,0.0,0.0,76,-99.99,,,-99.99,,2013-10-04 09:23:00,
2013-10-04 02:58:00,49.0,42.0,31.04,West,270,0.0,0.0,76,-99.99,,,-99.99,,2013-10-04 09:58:00,
2013-10-04 03:26:00,49.0,42.0,31.04,West,270,0.0,0.0,77,-99.99,,,-99.99,,2013-10-04 10:26:00,
2013-10-04 03:58:00,48.0,41.0,31.05,West,270,0.0,0.0,78,-99.99,,,-99.99,,2013-10-04 10:58:00,
2013-10-04 04:25:00,47.0,41.0,31.05,West,270,0.0,0.0,78,-99.99,,,-99.99,,2013-10-04 11:25:00,
2013-10-04 04:58:00,48.0,40.0,31.04,West,270,0.0,0.0,75,-99.99,,,-99.99,,2013-10-04 11:58:00,
2013-10-04 05:25:00,47.0,40.0,31.04,West,270,0.0,0.0,76,-99.99,,,-99.99,,2013-10-04 12:25:00,
2013-10-04 05:56:00,47.0,40.0,31.04,West,270,0.0,0.0,77,-99.99,,,-99.99,,2013-10-04 12:56:00,
2013-10-04 06:25:00,46.0,40.0,31.04,West,270,0.0,0.0,79,-99.99,,,-99.99,,2013-10-04 13:25:00,
2013-10-04 06:57:00,46.0,40.0,31.05,West,270,0.0,0.0,80,-99.99,,,-99.99,,2013-10-04 13:57:00,
2013-10-04 07:25:00,46.0,40.0,31.04,West,270,0.0,0.0,78,-99.99,,,-99.99,,2013-10-04 14:25:00,
2013-10-04 07:58:00,46.0,40.0,31.05,West,270,0.0,0.0,79,-99.99,,,-99.99,,2013-10-04 14:58:00,
2013-10-04 08:25:00,49.0,42.0,31.05,West,270,0.0,0.0,78,-99.99,,,-99.99,,2013-10-04 15:25:00,
2013-10-04 17:12:00,68.0,39.0,31.00,West,270,0.0,0.0,34,-99.99,,,-99.99,,2013-10-05 00:12:00,
2013-10-04 17:42:00,66.0,38.0,31.00,West,270,0.0,0.0,35,-99.99,,,-99.99,,2013-10-05 00:42:00,
2013-10-04 17:52:00,66.0,38.0,31.00,West,270,0.0,0.0,35,-99.99,,,-99.99,,2013-10-05 00:52:00,
2013-10-04 18:02:00,66.0,38.0,31.00,West,270,0.0,0.0,35,-99.99,,,-99.99,,2013-10-05 01:02:00,
2013-10-04 18:21:00,64.0,37.0,30.99,West,270,0.0,0.0,36,-99.99,,,-99.99,,2013-10-05 01:21:00,
2013-10-04 18:43:00,64.0,39.0,30.99,West,270,0.0,0.0,40,-99.99,,,-99.99,,2013-10-05 01:43:00,
2013-10-04 18:52:00,62.0,39.0,30.99,West,270,0.0,0.0,42,-99.99,,,-99.99,,2013-10-05 01:52:00,
2013-10-04 19:21:00,60.0,37.0,30.99,West,270,0.0,0.0,42,-99.99,,,-99.99,,2013-10-05 02:21:00,
2013-10-04 19:52:00,59.0,37.0,30.98,West,270,0.0,0.0,44,-99.99,,,-99.99,,2013-10-05 02:52:00,
2013-10-04 20:22:00,59.0,39.0,30.98,West,270,0.0,0.0,47,-99.99,,,-99.99,,2013-10-05 03:22:00,
2013-10-04 20:55:00,58.0,38.0,30.98,West,270,0.0,0.0,48,-99.99,,,-99.99,,2013-10-05 03:55:00,
2013-10-04 22:22:00,58.0,39.0,30.98,West,270,0.0,0.0,50,-99.99,,,-99.99,,2013-10-05 05:22:00,
2013-10-04 22:52:00,57.0,40.0,30.98,West,270,0.0,0.0,52,-99.99,,,-99.99,,2013-10-05 05:52:00,
2013-10-04 23:12:00,56.0,41.0,30.97,West,270,0.0,0.0,56,-99.99,,,-99.99,,2013-10-05 06:12:00,
2013-10-04 23:22:00,56.0,41.0,30.97,West,270,0.0,0.0,57,-99.99,,,-99.99,,2013-10-05 06:22:00,
2013-10-04 23:52:00,56.0,42.0,30.97,West,270,0.0,0.0,59,-99.99,,,-99.99,,2013-10-05 06:52:00,